• Join FlightAware (Why Join?)
  • Login
  • US Flag 
12:39AM EST


 

Airport Tracker/Info


-or-


 

Live Flight TrackerFlight Track Log ✈ N734XC ✈ 12-Jun-2014 ✈ KCEF - KCEF

Flight Track Log - Related Links

Times and Time Zones

All times are in EDT time to prevent confusion due to time zone crossing. See the N734XC flight status page for this flight to view local times or setup timezone preferences in your user account.

Time Position Orientation Groundspeed Altitude Reporting Facility
EDT Latitude Longitude Course Direction KTS MPH feet Rate Location/Type
01:40PM 42.2003 -72.5272 27° Northeast 67 77 900  Level Boston Center
01:42PM 42.2244 -72.5108 27° Northeast 67 77 1,700 600 Climbing Boston Center
01:42PM 42.2289 -72.5142 331° Northwest 86 99 1,900 540 Climbing Boston Center
01:43PM 42.2464 -72.5233 339° North 92 106 2,300 540 Climbing Boston Center
01:44PM 42.2706 -72.5322 345° North 93 107 2,900 300 Climbing Boston Center
01:45PM 42.3044 -72.5464 343° North 113 130 3,000 60 Climbing Boston Center
01:46PM 42.3342 -72.5694 330° Northwest 139 160 3,100  Climbing Boston Center
01:47PM 42.3442 -72.6167 286° West 125 144 3,000 -60 Descending Boston Center
01:48PM 42.3433 -72.6542 268° West 99 114 3,000  Level Boston Center
01:49PM 42.3306 -72.6758 231° Southwest 75 86 3,000 -60 Level Boston Center
01:50PM 42.3103 -72.6800 189° South 65 75 2,900 -240 Descending Boston Center
01:51PM 42.2925 -72.6822 185° South 66 76 2,600 -300 Descending Boston Center
01:52PM 42.2722 -72.6867 189° South 76 87 2,300 -420 Descending Boston Center
01:53PM 42.2475 -72.6922 189° South 87 100 1,800 -480 Descending Boston Center
01:54PM 42.2219 -72.7006 194° South 99 114 1,400 -480 Descending Boston Center
01:55PM 42.1972 -72.7061 189° South 101 116 900 -540 Descending Boston Center
01:55PM 42.1886 -72.7075 187° South 98 113 800 -120 Descending Boston Center
01:56PM 42.1697 -72.7136 193° South 98 113 800 60 Level Boston Center
01:56PM 42.1658 -72.7158 203° Southwest 98 113 900 780 Climbing Boston Center
01:57PM 42.1419 -72.7239 194° South 95 109 1,600 780 Climbing Boston Center
01:57PM 42.1392 -72.7258 207° Southwest 94 108 1,700 600 Climbing Boston Center
01:58PM 42.1278 -72.7544 242° Southwest 109 125 2,400 600 Climbing Boston Center
01:59PM 42.1258 -72.7819 265° West 100 115 2,900 420 Climbing Boston Center
01:59PM 42.1281 -72.7911 288° West 103 119 2,900 60 Level Boston Center
02:00PM 42.1283 -72.8233 271° West 111 128 3,000 60 Climbing Boston Center
02:00PM 42.1314 -72.8336 292° West 112 129 3,000  Level Boston Center
02:01PM 42.1317 -72.8708 271° West 126 145 3,000  Level Boston Center
02:01PM 42.1372 -72.8819 304° West 120 138 3,000  Level Boston Center
02:02PM 42.1569 -72.8858 352° North 147 169 3,000 -120 Level Boston Center
02:02PM 42.1758 -72.8908 349° North 139 160 2,900  Descending Boston Center
02:03PM 42.2017 -72.8878 North 137 158 3,000  Climbing Boston Center
02:03PM 42.2108 -72.8856 10° North 127 146 2,900  Descending Boston Center
02:04PM 42.2378 -72.8806 North 121 139 3,000 60 Climbing Boston Center
02:05PM 42.2622 -72.8661 24° Northeast 117 135 3,000 -120 Level Boston Center
02:05PM 42.2786 -72.8614 12° North 122 140 2,900  Descending Boston Center
02:06PM 42.2953 -72.8519 23° Northeast 121 139 3,000  Climbing Boston Center
02:06PM 42.3086 -72.8436 25° Northeast 122 140 2,900  Descending Boston Center
02:07PM 42.3181 -72.8253 55° Northeast 110 127 3,000  Climbing Boston Center
02:07PM 42.3306 -72.8094 43° Northeast 114 131 2,900  Descending Boston Center
02:08PM 42.3447 -72.7886 47° Northeast 110 127 3,000  Climbing Boston Center
02:08PM 42.3522 -72.7797 41° Northeast 114 131 2,900  Descending Boston Center
02:09PM 42.3658 -72.7583 49° Northeast 110 127 3,000  Climbing Boston Center
02:09PM 42.3689 -72.7472 70° East 111 128 2,900  Descending Boston Center
02:10PM 42.3667 -72.7325 102° East 96 110 3,000  Climbing Boston Center
02:10PM 42.3697 -72.7086 80° East 98 113 2,900  Descending Boston Center
02:11PM 42.3639 -72.6819 106° East 99 114 3,000  Climbing Boston Center
02:11PM 42.3603 -72.6792 150° Southeast 96 110 2,900 60 Descending Boston Center
02:12PM 42.3422 -72.6711 162° South 85 98 3,100  Climbing Boston Center
02:12PM 42.3375 -72.6719 187° South 89 102 2,900 -120 Descending Boston Center
02:13PM 42.3194 -72.6775 193° South 89 102 3,000 -120 Climbing Boston Center
02:13PM 42.3114 -72.6786 186° South 89 102 2,800 -300 Descending Boston Center
02:14PM 42.2964 -72.6839 195° South 86 99 2,700 -420 Descending Boston Center
02:14PM 42.2881 -72.6844 183° South 87 100 2,400 -360 Descending Boston Center
02:15PM 42.2742 -72.6875 189° South 83 96 2,400 -300 Level Boston Center
02:15PM 42.2644 -72.6897 190° South 87 100 2,100 -540 Descending Boston Center
02:16PM 42.2514 -72.6936 192° South 88 101 1,900 -540 Descending Boston Center
02:16PM 42.2394 -72.6967 191° South 87 100 1,600 -480 Descending Boston Center
02:17PM 42.2286 -72.7000 193° South 91 105 1,500 -540 Descending Boston Center
02:17PM 42.2122 -72.7028 187° South 95 109 1,100 -540 Descending Boston Center
02:18PM 42.1997 -72.7042 185° South 101 116 1,000 -420 Descending Boston Center
02:19PM 42.1847 -72.7103 197° South 98 113 700 -240 Descending Boston Center
02:19PM 42.1783 -72.7136 201° Southwest 105 121 800 240 Climbing Boston Center
02:20PM 42.1592 -72.7181 190° South 98 113 1,000 480 Climbing Boston Center
02:20PM 42.1483 -72.7233 200° South 97 112 1,300 480 Climbing Boston Center
02:21PM 42.1481 -72.7500 269° West 107 123 1,500 300 Climbing Boston Center
02:21PM 42.1469 -72.7633 264° West 103 119 1,700 360 Climbing Boston Center
02:22PM 42.1472 -72.7886 271° West 106 122 1,900 540 Climbing Boston Center
02:22PM 42.1467 -72.8067 268° West 104 120 2,300 420 Climbing Boston Center
02:23PM 42.1494 -72.8319 278° West 106 122 2,400 360 Climbing Boston Center
02:23PM 42.1472 -72.8475 259° West 110 127 2,700 360 Climbing Boston Center
02:24PM 42.1431 -72.8697 256° West 106 122 2,800 240 Climbing Boston Center
02:24PM 42.1375 -72.8847 243° Southwest 100 115 3,000 180 Climbing Boston Center
02:25PM 42.1311 -72.9050 247° West 105 121 3,000  Level Boston Center
02:25PM 42.1206 -72.9047 179° South 88 101 3,000 -120 Level Boston Center
02:26PM 42.1061 -72.9072 187° South 85 98 2,900  Descending Boston Center
02:26PM 42.0956 -72.9011 157° South 79 91 3,000  Climbing Boston Center
02:27PM 42.0867 -72.8947 152° Southeast 80 92 2,900  Descending Boston Center
02:27PM 42.0808 -72.8872 136° Southeast 76 87 3,000  Climbing Boston Center
02:28PM 42.0725 -72.8731 128° Southeast 78 90 2,900  Descending Boston Center
02:28PM 42.0661 -72.8644 135° Southeast 78 90 3,000  Climbing Boston Center
02:29PM 42.0567 -72.8497 131° Southeast 78 90 2,900  Descending Boston Center
02:29PM 42.0514 -72.8417 131° Southeast 79 91 3,000  Climbing Boston Center
02:30PM 42.0411 -72.8281 135° Southeast 78 90 2,900  Descending Boston Center
02:30PM 42.0358 -72.8217 138° Southeast 81 93 3,000  Climbing Boston Center
02:31PM 42.0272 -72.8053 125° Southeast 79 91 2,900  Descending Boston Center
02:31PM 42.0256 -72.7978 107° East 89 102 3,000 60 Climbing Boston Center
02:32PM 42.0236 -72.7703 95° East 85 98 3,000  Level Boston Center
02:33PM 42.0194 -72.7317 98° East 93 107 3,000 -120 Level Boston Center
02:34PM 42.0278 -72.7028 69° East 96 110 2,800 -360 Descending Boston Center
02:35PM 42.0447 -72.6692 56° Northeast 104 120 2,400 -180 Descending Boston Center
02:36PM 42.0658 -72.6500 34° Northeast 99 114 2,500  Climbing Boston Center
02:37PM 42.0875 -72.6289 36° Northeast 94 108 2,400 -300 Descending Boston Center
02:38PM 42.1108 -72.6083 33° Northeast 102 117 1,900 -540 Descending Boston Center
02:39PM 42.1350 -72.5858 35° Northeast 97 112 1,300 -540 Descending Boston Center
02:40PM 42.1558 -72.5664 35° Northeast 98 113 900 -480 Descending Boston Center
02:41PM 42.1747 -72.5511 31° Northeast 71 82 400 -480 Descending Boston Center